Goshen, New York
Current Conditions -  °F | °C
As of 10:54 PM on Saturday 25 Oct 2014 (Local Time) from KMGJ Reporting Station
Moderate Rain Moderate Rain  
Wind Chill: 12°   Ceiling: 5000
Heat Index: 12°   Visibility: 4mi
Dew Point:   Wind: 3mph
Humidity: 83%   Direction: 310°NW
Pressure: 29.58"   Gusts: NA
Location:  41.41°N, 74.32°W
Report Text: KMGJ 260254Z AUTO 31003KT 4SM RA FEW036 BKN050 OVC095 12/09 A2958 RMK AO2 RAB07E21B49 SLP014 P0004 60004 T01170089 53000 TSNO
Loading
Personal Weather Stations






























Interactive Weather Map
Tropical Storm Tracking
New forecast layout! Learn more

10-Day Weather Forecast

Advertisements
Track Severe Weather on mobile